sensor_id;sensor_type;location;lat;lon;timestamp;P1;durP1;ratioP1;P2;durP2;ratioP2
45792;SDS011;31495;42.740;22.908;2022-10-22T00:00:06;19.55;;;11.15;;
45792;SDS011;31495;42.740;22.908;2022-10-22T00:01:08;20.85;;;10.73;;
45792;SDS011;31495;42.740;22.908;2022-10-22T00:02:07;23.67;;;12.05;;
45792;SDS011;31495;42.740;22.908;2022-10-22T00:03:07;21.08;;;10.48;;
45792;SDS011;31495;42.740;22.908;2022-10-22T00:04:06;20.63;;;9.73;;
45792;SDS011;31495;42.740;22.908;2022-10-22T00:05:06;22.67;;;10.65;;
45792;SDS011;31495;42.740;22.908;2022-10-22T00:06:06;19.65;;;10.25;;
45792;SDS011;31495;42.740;22.908;2022-10-22T00:07:06;16.67;;;9.88;;
45792;SDS011;31495;42.740;22.908;2022-10-22T00:08:05;20.05;;;9.98;;
45792;SDS011;31495;42.740;22.908;2022-10-22T00:09:05;20.67;;;9.88;;
45792;SDS011;31495;42.740;22.908;2022-10-22T00:10:04;21.83;;;11.57;;
45792;SDS011;31495;42.740;22.908;2022-10-22T00:11:11;21.58;;;11.27;;
45792;SDS011;31495;42.740;22.908;2022-10-22T00:12:13;18.75;;;9.98;;
45792;SDS011;31495;42.740;22.908;2022-10-22T00:13:14;17.83;;;9.07;;
45792;SDS011;31495;42.740;22.908;2022-10-22T00:14:13;19.83;;;10.27;;
45792;SDS011;31495;42.740;22.908;2022-10-22T00:15:14;18.48;;;11.57;;
45792;SDS011;31495;42.740;22.908;2022-10-22T00:16:13;16.20;;;10.65;;
45792;SDS011;31495;42.740;22.908;2022-10-22T00:17:13;21.88;;;10.18;;
45792;SDS011;31495;42.740;22.908;2022-10-22T00:18:12;20.63;;;9.90;;
45792;SDS011;31495;42.740;22.908;2022-10-22T00:19:12;16.02;;;8.57;;
45792;SDS011;31495;42.740;22.908;2022-10-22T00:20:11;14.73;;;8.77;;
45792;SDS011;31495;42.740;22.908;2022-10-22T00:21:10;18.02;;;8.45;;
45792;SDS011;31495;42.740;22.908;2022-10-22T00:22:10;20.48;;;10.10;;
45792;SDS011;31495;42.740;22.908;2022-10-22T00:23:10;15.90;;;9.15;;
45792;SDS011;31495;42.740;22.908;2022-10-22T00:24:09;19.92;;;9.73;;
45792;SDS011;31495;42.740;22.908;2022-10-22T00:25:09;15.75;;;8.60;;
45792;SDS011;31495;42.740;22.908;2022-10-22T00:26:08;15.13;;;8.75;;
45792;SDS011;31495;42.740;22.908;2022-10-22T00:27:10;20.42;;;9.40;;
45792;SDS011;31495;42.740;22.908;2022-10-22T00:28:10;19.80;;;9.88;;
45792;SDS011;31495;42.740;22.908;2022-10-22T00:29:09;16.52;;;9.65;;
45792;SDS011;31495;42.740;22.908;2022-10-22T00:30:09;16.98;;;9.75;;
45792;SDS011;31495;42.740;22.908;2022-10-22T00:31:08;23.40;;;9.57;;
45792;SDS011;31495;42.740;22.908;2022-10-22T00:32:08;15.13;;;8.95;;
45792;SDS011;31495;42.740;22.908;2022-10-22T00:33:08;21.50;;;8.35;;
45792;SDS011;31495;42.740;22.908;2022-10-22T00:34:07;17.60;;;8.55;;
45792;SDS011;31495;42.740;22.908;2022-10-22T00:35:07;25.02;;;9.10;;
45792;SDS011;31495;42.740;22.908;2022-10-22T00:36:07;17.92;;;9.10;;
45792;SDS011;31495;42.740;22.908;2022-10-22T00:37:07;21.73;;;10.13;;
45792;SDS011;31495;42.740;22.908;2022-10-22T00:38:06;17.42;;;8.57;;
45792;SDS011;31495;42.740;22.908;2022-10-22T00:39:06;17.25;;;9.32;;
45792;SDS011;31495;42.740;22.908;2022-10-22T00:40:05;21.35;;;9.75;;
45792;SDS011;31495;42.740;22.908;2022-10-22T00:41:05;19.55;;;9.07;;
45792;SDS011;31495;42.740;22.908;2022-10-22T00:42:04;17.17;;;8.60;;
45792;SDS011;31495;42.740;22.908;2022-10-22T00:43:04;14.25;;;8.73;;
45792;SDS011;31495;42.740;22.908;2022-10-22T00:44:04;19.02;;;9.88;;
45792;SDS011;31495;42.740;22.908;2022-10-22T00:46:10;17.13;;;9.40;;
45792;SDS011;31495;42.740;22.908;2022-10-22T00:47:09;17.88;;;9.15;;
45792;SDS011;31495;42.740;22.908;2022-10-22T00:48:09;16.80;;;9.65;;
45792;SDS011;31495;42.740;22.908;2022-10-22T00:49:11;19.23;;;9.82;;
45792;SDS011;31495;42.740;22.908;2022-10-22T00:50:12;16.58;;;10.30;;
45792;SDS011;31495;42.740;22.908;2022-10-22T00:51:15;17.80;;;10.57;;
45792;SDS011;31495;42.740;22.908;2022-10-22T00:52:14;28.05;;;14.07;;
45792;SDS011;31495;42.740;22.908;2022-10-22T00:53:16;90.30;;;40.65;;
45792;SDS011;31495;42.740;22.908;2022-10-22T00:54:19;25.38;;;12.77;;
45792;SDS011;31495;42.740;22.908;2022-10-22T00:55:18;48.13;;;20.88;;
45792;SDS011;31495;42.740;22.908;2022-10-22T00:56:19;37.80;;;17.75;;
45792;SDS011;31495;42.740;22.908;2022-10-22T00:57:19;58.22;;;25.67;;
45792;SDS011;31495;42.740;22.908;2022-10-22T00:58:19;34.67;;;16.38;;
45792;SDS011;31495;42.740;22.908;2022-10-22T00:59:22;25.80;;;13.57;;
45792;SDS011;31495;42.740;22.908;2022-10-22T01:00:22;29.27;;;12.25;;
45792;SDS011;31495;42.740;22.908;2022-10-22T01:01:23;25.67;;;13.05;;
45792;SDS011;31495;42.740;22.908;2022-10-22T01:02:25;34.45;;;15.60;;
45792;SDS011;31495;42.740;22.908;2022-10-22T01:03:25;29.45;;;16.30;;
45792;SDS011;31495;42.740;22.908;2022-10-22T01:04:25;35.67;;;18.63;;
45792;SDS011;31495;42.740;22.908;2022-10-22T01:05:28;30.83;;;15.85;;
45792;SDS011;31495;42.740;22.908;2022-10-22T01:06:32;30.88;;;15.93;;
45792;SDS011;31495;42.740;22.908;2022-10-22T01:07:32;37.15;;;19.95;;
45792;SDS011;31495;42.740;22.908;2022-10-22T01:08:53;38.85;;;19.45;;
45792;SDS011;31495;42.740;22.908;2022-10-22T01:12:47;33.30;;;17.42;;
45792;SDS011;31495;42.740;22.908;2022-10-22T01:14:14;34.65;;;18.20;;
45792;SDS011;31495;42.740;22.908;2022-10-22T01:16:19;36.65;;;17.98;;
45792;SDS011;31495;42.740;22.908;2022-10-22T01:18:47;28.25;;;15.30;;
45792;SDS011;31495;42.740;22.908;2022-10-22T01:21:47;29.33;;;14.70;;
45792;SDS011;31495;42.740;22.908;2022-10-22T01:23:02;28.38;;;15.35;;
45792;SDS011;31495;42.740;22.908;2022-10-22T01:26:37;25.42;;;13.77;;
45792;SDS011;31495;42.740;22.908;2022-10-22T01:29:12;23.25;;;11.15;;
45792;SDS011;31495;42.740;22.908;2022-10-22T01:30:16;21.15;;;10.80;;
45792;SDS011;31495;42.740;22.908;2022-10-22T01:31:16;22.17;;;11.25;;
45792;SDS011;31495;42.740;22.908;2022-10-22T01:32:21;21.55;;;10.45;;
45792;SDS011;31495;42.740;22.908;2022-10-22T01:33:22;16.83;;;9.15;;
45792;SDS011;31495;42.740;22.908;2022-10-22T01:34:24;19.20;;;10.52;;
45792;SDS011;31495;42.740;22.908;2022-10-22T01:35:27;21.08;;;10.20;;
45792;SDS011;31495;42.740;22.908;2022-10-22T01:36:30;20.08;;;10.57;;
45792;SDS011;31495;42.740;22.908;2022-10-22T01:37:33;17.38;;;9.88;;
45792;SDS011;31495;42.740;22.908;2022-10-22T01:38:38;20.00;;;10.43;;
45792;SDS011;31495;42.740;22.908;2022-10-22T01:39:39;18.60;;;9.77;;
45792;SDS011;31495;42.740;22.908;2022-10-22T01:40:41;21.38;;;10.88;;
45792;SDS011;31495;42.740;22.908;2022-10-22T01:41:45;22.50;;;10.93;;
45792;SDS011;31495;42.740;22.908;2022-10-22T01:42:57;24.60;;;11.43;;
45792;SDS011;31495;42.740;22.908;2022-10-22T01:43:57;22.65;;;12.43;;
45792;SDS011;31495;42.740;22.908;2022-10-22T01:44:57;25.77;;;12.07;;
45792;SDS011;31495;42.740;22.908;2022-10-22T01:45:57;21.33;;;10.68;;
45792;SDS011;31495;42.740;22.908;2022-10-22T01:48:08;19.35;;;12.18;;
45792;SDS011;31495;42.740;22.908;2022-10-22T01:49:23;19.35;;;11.68;;
45792;SDS011;31495;42.740;22.908;2022-10-22T01:51:48;23.10;;;11.55;;
45792;SDS011;31495;42.740;22.908;2022-10-22T01:54:28;26.85;;;13.00;;
45792;SDS011;31495;42.740;22.908;2022-10-22T02:01:00;27.38;;;14.18;;
45792;SDS011;31495;42.740;22.908;2022-10-22T02:02:27;28.48;;;12.98;;
45792;SDS011;31495;42.740;22.908;2022-10-22T02:03:30;24.25;;;11.57;;
45792;SDS011;31495;42.740;22.908;2022-10-22T02:05:47;15.23;;;9.25;;
45792;SDS011;31495;42.740;22.908;2022-10-22T02:06:50;17.48;;;9.35;;
45792;SDS011;31495;42.740;22.908;2022-10-22T02:08:00;18.08;;;9.38;;
45792;SDS011;31495;42.740;22.908;2022-10-22T02:09:04;13.80;;;7.85;;
45792;SDS011;31495;42.740;22.908;2022-10-22T02:10:06;16.23;;;8.18;;
45792;SDS011;31495;42.740;22.908;2022-10-22T02:11:08;16.13;;;9.10;;
45792;SDS011;31495;42.740;22.908;2022-10-22T02:12:10;19.83;;;9.68;;
45792;SDS011;31495;42.740;22.908;2022-10-22T02:13:12;21.92;;;9.20;;
45792;SDS011;31495;42.740;22.908;2022-10-22T02:14:16;18.15;;;9.30;;
45792;SDS011;31495;42.740;22.908;2022-10-22T02:15:17;23.05;;;11.75;;
45792;SDS011;31495;42.740;22.908;2022-10-22T02:16:39;30.52;;;13.60;;
45792;SDS011;31495;42.740;22.908;2022-10-22T02:17:42;31.42;;;16.95;;
45792;SDS011;31495;42.740;22.908;2022-10-22T02:18:45;36.95;;;17.27;;
45792;SDS011;31495;42.740;22.908;2022-10-22T02:19:52;34.53;;;17.30;;
45792;SDS011;31495;42.740;22.908;2022-10-22T02:20:52;27.38;;;14.77;;
45792;SDS011;31495;42.740;22.908;2022-10-22T02:21:52;36.28;;;17.60;;
45792;SDS011;31495;42.740;22.908;2022-10-22T02:22:52;34.20;;;17.70;;
45792;SDS011;31495;42.740;22.908;2022-10-22T02:23:53;36.63;;;16.38;;
45792;SDS011;31495;42.740;22.908;2022-10-22T02:24:53;28.02;;;14.82;;
45792;SDS011;31495;42.740;22.908;2022-10-22T02:26:10;29.33;;;13.27;;
45792;SDS011;31495;42.740;22.908;2022-10-22T02:27:24;29.73;;;14.35;;
45792;SDS011;31495;42.740;22.908;2022-10-22T02:28:31;25.15;;;13.80;;
45792;SDS011;31495;42.740;22.908;2022-10-22T02:29:54;23.58;;;13.48;;
45792;SDS011;31495;42.740;22.908;2022-10-22T02:30:56;24.75;;;12.95;;
45792;SDS011;31495;42.740;22.908;2022-10-22T02:32:02;22.63;;;12.13;;
45792;SDS011;31495;42.740;22.908;2022-10-22T02:34:18;22.58;;;12.07;;
45792;SDS011;31495;42.740;22.908;2022-10-22T02:35:22;24.23;;;11.18;;
45792;SDS011;31495;42.740;22.908;2022-10-22T02:36:24;23.55;;;12.13;;
45792;SDS011;31495;42.740;22.908;2022-10-22T02:37:24;26.88;;;12.57;;
45792;SDS011;31495;42.740;22.908;2022-10-22T02:38:25;23.20;;;11.07;;
45792;SDS011;31495;42.740;22.908;2022-10-22T02:39:26;23.08;;;10.73;;
45792;SDS011;31495;42.740;22.908;2022-10-22T02:40:26;22.25;;;11.02;;
45792;SDS011;31495;42.740;22.908;2022-10-22T02:41:29;25.48;;;12.40;;
45792;SDS011;31495;42.740;22.908;2022-10-22T02:42:28;23.73;;;11.93;;
45792;SDS011;31495;42.740;22.908;2022-10-22T02:43:28;20.02;;;11.45;;
45792;SDS011;31495;42.740;22.908;2022-10-22T02:44:28;23.65;;;11.75;;
45792;SDS011;31495;42.740;22.908;2022-10-22T02:45:27;20.02;;;11.48;;
45792;SDS011;31495;42.740;22.908;2022-10-22T02:46:27;24.08;;;10.90;;
45792;SDS011;31495;42.740;22.908;2022-10-22T02:47:27;19.05;;;10.55;;
45792;SDS011;31495;42.740;22.908;2022-10-22T02:48:26;19.63;;;11.68;;
45792;SDS011;31495;42.740;22.908;2022-10-22T02:49:26;19.75;;;10.43;;
45792;SDS011;31495;42.740;22.908;2022-10-22T02:50:26;18.95;;;10.20;;
45792;SDS011;31495;42.740;22.908;2022-10-22T02:51:25;27.35;;;13.00;;
45792;SDS011;31495;42.740;22.908;2022-10-22T02:52:25;20.52;;;11.23;;
45792;SDS011;31495;42.740;22.908;2022-10-22T02:53:24;21.40;;;11.38;;
45792;SDS011;31495;42.740;22.908;2022-10-22T02:54:23;18.42;;;11.70;;
45792;SDS011;31495;42.740;22.908;2022-10-22T02:55:23;19.77;;;10.75;;
45792;SDS011;31495;42.740;22.908;2022-10-22T02:56:22;18.48;;;10.85;;
45792;SDS011;31495;42.740;22.908;2022-10-22T02:57:22;18.88;;;10.70;;
45792;SDS011;31495;42.740;22.908;2022-10-22T02:58:21;17.83;;;10.68;;
45792;SDS011;31495;42.740;22.908;2022-10-22T02:59:21;17.55;;;9.43;;
45792;SDS011;31495;42.740;22.908;2022-10-22T03:00:20;16.80;;;10.27;;
45792;SDS011;31495;42.740;22.908;2022-10-22T03:01:20;17.67;;;10.60;;
45792;SDS011;31495;42.740;22.908;2022-10-22T03:02:19;19.13;;;10.48;;
45792;SDS011;31495;42.740;22.908;2022-10-22T03:03:19;26.67;;;10.77;;
45792;SDS011;31495;42.740;22.908;2022-10-22T03:04:18;23.33;;;10.90;;
45792;SDS011;31495;42.740;22.908;2022-10-22T03:05:18;23.10;;;10.98;;
45792;SDS011;31495;42.740;22.908;2022-10-22T03:06:17;18.58;;;10.25;;
45792;SDS011;31495;42.740;22.908;2022-10-22T03:07:17;17.08;;;9.90;;
45792;SDS011;31495;42.740;22.908;2022-10-22T03:08:16;21.52;;;10.57;;
45792;SDS011;31495;42.740;22.908;2022-10-22T03:09:16;23.45;;;10.98;;
45792;SDS011;31495;42.740;22.908;2022-10-22T03:10:16;15.55;;;9.63;;
45792;SDS011;31495;42.740;22.908;2022-10-22T03:11:15;16.77;;;9.48;;
45792;SDS011;31495;42.740;22.908;2022-10-22T03:12:15;19.38;;;11.07;;
45792;SDS011;31495;42.740;22.908;2022-10-22T03:13:14;14.88;;;9.13;;
45792;SDS011;31495;42.740;22.908;2022-10-22T03:14:14;19.88;;;10.93;;
45792;SDS011;31495;42.740;22.908;2022-10-22T03:15:13;20.27;;;10.70;;
45792;SDS011;31495;42.740;22.908;2022-10-22T03:16:12;19.48;;;10.32;;
45792;SDS011;31495;42.740;22.908;2022-10-22T03:17:12;16.90;;;9.65;;
45792;SDS011;31495;42.740;22.908;2022-10-22T03:18:11;17.70;;;9.73;;
45792;SDS011;31495;42.740;22.908;2022-10-22T03:19:11;18.02;;;10.02;;
45792;SDS011;31495;42.740;22.908;2022-10-22T03:20:10;16.45;;;9.30;;
45792;SDS011;31495;42.740;22.908;2022-10-22T03:21:52;18.30;;;8.85;;
45792;SDS011;31495;42.740;22.908;2022-10-22T03:22:35;16.92;;;9.30;;
45792;SDS011;31495;42.740;22.908;2022-10-22T03:23:39;17.70;;;9.63;;
45792;SDS011;31495;42.740;22.908;2022-10-22T03:24:41;22.10;;;9.48;;
45792;SDS011;31495;42.740;22.908;2022-10-22T03:25:45;18.13;;;10.52;;
45792;SDS011;31495;42.740;22.908;2022-10-22T03:26:47;24.75;;;11.25;;
45792;SDS011;31495;42.740;22.908;2022-10-22T03:27:50;20.70;;;11.05;;
45792;SDS011;31495;42.740;22.908;2022-10-22T03:29:52;21.38;;;10.82;;
45792;SDS011;31495;42.740;22.908;2022-10-22T03:30:53;16.85;;;9.68;;
45792;SDS011;31495;42.740;22.908;2022-10-22T03:31:53;18.92;;;10.55;;
45792;SDS011;31495;42.740;22.908;2022-10-22T03:32:53;16.27;;;9.52;;
45792;SDS011;31495;42.740;22.908;2022-10-22T03:33:52;16.52;;;9.48;;
45792;SDS011;31495;42.740;22.908;2022-10-22T03:34:51;18.38;;;10.10;;
45792;SDS011;31495;42.740;22.908;2022-10-22T03:35:51;19.45;;;9.95;;
45792;SDS011;31495;42.740;22.908;2022-10-22T03:36:51;19.75;;;10.20;;
45792;SDS011;31495;42.740;22.908;2022-10-22T03:37:52;19.75;;;10.85;;
45792;SDS011;31495;42.740;22.908;2022-10-22T03:38:52;16.30;;;10.32;;
45792;SDS011;31495;42.740;22.908;2022-10-22T03:39:53;17.38;;;10.68;;
45792;SDS011;31495;42.740;22.908;2022-10-22T03:40:53;16.52;;;10.65;;
45792;SDS011;31495;42.740;22.908;2022-10-22T03:41:54;21.77;;;10.40;;
45792;SDS011;31495;42.740;22.908;2022-10-22T03:42:54;21.77;;;10.65;;
45792;SDS011;31495;42.740;22.908;2022-10-22T03:43:53;17.15;;;10.15;;
45792;SDS011;31495;42.740;22.908;2022-10-22T03:44:54;18.65;;;10.90;;
45792;SDS011;31495;42.740;22.908;2022-10-22T03:45:53;21.10;;;10.70;;
45792;SDS011;31495;42.740;22.908;2022-10-22T03:46:53;21.75;;;10.45;;
45792;SDS011;31495;42.740;22.908;2022-10-22T03:47:52;25.00;;;11.50;;
45792;SDS011;31495;42.740;22.908;2022-10-22T03:48:52;17.35;;;10.55;;
45792;SDS011;31495;42.740;22.908;2022-10-22T03:49:51;19.15;;;10.80;;
45792;SDS011;31495;42.740;22.908;2022-10-22T03:50:51;18.52;;;10.35;;
45792;SDS011;31495;42.740;22.908;2022-10-22T03:51:50;22.58;;;11.10;;
45792;SDS011;31495;42.740;22.908;2022-10-22T03:52:49;15.88;;;10.55;;
45792;SDS011;31495;42.740;22.908;2022-10-22T03:53:49;16.25;;;10.18;;
45792;SDS011;31495;42.740;22.908;2022-10-22T03:54:48;17.05;;;10.00;;
45792;SDS011;31495;42.740;22.908;2022-10-22T03:55:48;17.67;;;10.32;;
45792;SDS011;31495;42.740;22.908;2022-10-22T03:56:47;20.75;;;10.65;;
45792;SDS011;31495;42.740;22.908;2022-10-22T03:57:47;17.98;;;9.80;;
45792;SDS011;31495;42.740;22.908;2022-10-22T03:58:46;18.33;;;10.95;;
45792;SDS011;31495;42.740;22.908;2022-10-22T03:59:45;15.93;;;10.27;;
45792;SDS011;31495;42.740;22.908;2022-10-22T04:00:45;17.65;;;10.52;;
45792;SDS011;31495;42.740;22.908;2022-10-22T04:01:44;18.42;;;9.90;;
45792;SDS011;31495;42.740;22.908;2022-10-22T04:02:44;19.65;;;11.20;;
45792;SDS011;31495;42.740;22.908;2022-10-22T04:03:43;18.98;;;10.68;;
45792;SDS011;31495;42.740;22.908;2022-10-22T04:04:42;19.40;;;11.73;;
45792;SDS011;31495;42.740;22.908;2022-10-22T04:05:42;22.63;;;11.50;;
45792;SDS011;31495;42.740;22.908;2022-10-22T04:06:41;19.15;;;10.52;;
45792;SDS011;31495;42.740;22.908;2022-10-22T04:07:41;24.15;;;11.23;;
45792;SDS011;31495;42.740;22.908;2022-10-22T04:08:41;18.88;;;10.93;;
45792;SDS011;31495;42.740;22.908;2022-10-22T04:09:42;19.92;;;10.50;;
45792;SDS011;31495;42.740;22.908;2022-10-22T04:10:41;18.95;;;11.50;;
45792;SDS011;31495;42.740;22.908;2022-10-22T04:11:41;21.30;;;11.45;;
45792;SDS011;31495;42.740;22.908;2022-10-22T04:12:40;17.80;;;11.05;;
45792;SDS011;31495;42.740;22.908;2022-10-22T04:13:40;22.10;;;12.07;;
45792;SDS011;31495;42.740;22.908;2022-10-22T04:14:40;22.58;;;12.30;;
45792;SDS011;31495;42.740;22.908;2022-10-22T04:15:39;19.42;;;11.60;;
45792;SDS011;31495;42.740;22.908;2022-10-22T04:16:39;24.35;;;12.23;;
45792;SDS011;31495;42.740;22.908;2022-10-22T04:17:39;18.40;;;10.43;;
45792;SDS011;31495;42.740;22.908;2022-10-22T04:18:39;19.38;;;11.57;;
45792;SDS011;31495;42.740;22.908;2022-10-22T04:19:39;20.00;;;11.77;;
45792;SDS011;31495;42.740;22.908;2022-10-22T04:20:40;20.10;;;11.70;;
45792;SDS011;31495;42.740;22.908;2022-10-22T04:21:39;21.15;;;11.82;;
45792;SDS011;31495;42.740;22.908;2022-10-22T04:22:39;16.13;;;10.57;;
45792;SDS011;31495;42.740;22.908;2022-10-22T04:23:38;18.75;;;10.38;;
45792;SDS011;31495;42.740;22.908;2022-10-22T04:24:42;18.35;;;10.25;;
45792;SDS011;31495;42.740;22.908;2022-10-22T04:25:41;17.85;;;10.43;;
45792;SDS011;31495;42.740;22.908;2022-10-22T04:26:41;18.25;;;9.15;;
45792;SDS011;31495;42.740;22.908;2022-10-22T04:27:40;24.00;;;10.38;;
45792;SDS011;31495;42.740;22.908;2022-10-22T04:28:40;20.42;;;11.50;;
45792;SDS011;31495;42.740;22.908;2022-10-22T04:29:40;21.67;;;10.93;;
45792;SDS011;31495;42.740;22.908;2022-10-22T04:30:39;21.27;;;12.27;;
45792;SDS011;31495;42.740;22.908;2022-10-22T04:31:39;21.52;;;11.52;;
45792;SDS011;31495;42.740;22.908;2022-10-22T04:32:38;20.33;;;12.68;;
45792;SDS011;31495;42.740;22.908;2022-10-22T04:33:38;19.33;;;11.30;;
45792;SDS011;31495;42.740;22.908;2022-10-22T04:34:37;21.75;;;11.48;;
45792;SDS011;31495;42.740;22.908;2022-10-22T04:35:37;24.45;;;12.43;;
45792;SDS011;31495;42.740;22.908;2022-10-22T04:36:38;25.80;;;13.27;;
45792;SDS011;31495;42.740;22.908;2022-10-22T04:37:37;18.90;;;12.10;;
45792;SDS011;31495;42.740;22.908;2022-10-22T04:38:37;19.08;;;11.40;;
45792;SDS011;31495;42.740;22.908;2022-10-22T04:39:37;22.88;;;12.98;;
45792;SDS011;31495;42.740;22.908;2022-10-22T04:40:37;19.92;;;12.15;;
45792;SDS011;31495;42.740;22.908;2022-10-22T04:41:37;22.20;;;11.88;;
45792;SDS011;31495;42.740;22.908;2022-10-22T04:42:37;23.05;;;12.30;;
45792;SDS011;31495;42.740;22.908;2022-10-22T04:43:36;23.83;;;12.43;;
45792;SDS011;31495;42.740;22.908;2022-10-22T04:44:37;38.85;;;19.33;;
45792;SDS011;31495;42.740;22.908;2022-10-22T04:45:36;113.82;;;53.15;;
45792;SDS011;31495;42.740;22.908;2022-10-22T04:46:36;91.20;;;48.47;;
45792;SDS011;31495;42.740;22.908;2022-10-22T04:47:35;50.03;;;27.50;;
45792;SDS011;31495;42.740;22.908;2022-10-22T04:48:35;55.78;;;30.90;;
45792;SDS011;31495;42.740;22.908;2022-10-22T04:49:36;53.70;;;28.95;;
45792;SDS011;31495;42.740;22.908;2022-10-22T04:50:36;53.08;;;28.63;;
45792;SDS011;31495;42.740;22.908;2022-10-22T04:51:35;62.20;;;31.48;;
45792;SDS011;31495;42.740;22.908;2022-10-22T04:52:34;63.00;;;31.67;;
45792;SDS011;31495;42.740;22.908;2022-10-22T04:53:34;53.95;;;27.45;;
45792;SDS011;31495;42.740;22.908;2022-10-22T04:54:34;42.35;;;22.85;;
45792;SDS011;31495;42.740;22.908;2022-10-22T04:55:33;31.33;;;19.00;;
45792;SDS011;31495;42.740;22.908;2022-10-22T04:56:33;34.10;;;18.02;;
45792;SDS011;31495;42.740;22.908;2022-10-22T04:57:32;34.50;;;18.10;;
45792;SDS011;31495;42.740;22.908;2022-10-22T04:58:32;28.30;;;16.90;;
45792;SDS011;31495;42.740;22.908;2022-10-22T04:59:31;30.75;;;17.42;;
45792;SDS011;31495;42.740;22.908;2022-10-22T05:00:31;34.13;;;18.23;;
45792;SDS011;31495;42.740;22.908;2022-10-22T05:01:34;41.08;;;20.70;;
45792;SDS011;31495;42.740;22.908;2022-10-22T05:02:38;36.08;;;18.85;;
45792;SDS011;31495;42.740;22.908;2022-10-22T05:03:37;37.83;;;19.50;;
45792;SDS011;31495;42.740;22.908;2022-10-22T05:04:37;37.67;;;19.33;;
45792;SDS011;31495;42.740;22.908;2022-10-22T05:05:36;31.67;;;19.35;;
45792;SDS011;31495;42.740;22.908;2022-10-22T05:06:36;28.73;;;16.10;;
45792;SDS011;31495;42.740;22.908;2022-10-22T05:07:35;26.38;;;15.27;;
45792;SDS011;31495;42.740;22.908;2022-10-22T05:08:35;31.20;;;18.35;;
45792;SDS011;31495;42.740;22.908;2022-10-22T05:09:34;32.67;;;17.08;;
45792;SDS011;31495;42.740;22.908;2022-10-22T05:10:33;33.70;;;17.58;;
45792;SDS011;31495;42.740;22.908;2022-10-22T05:11:34;27.05;;;16.55;;
45792;SDS011;31495;42.740;22.908;2022-10-22T05:12:35;28.42;;;15.68;;
45792;SDS011;31495;42.740;22.908;2022-10-22T05:13:34;30.48;;;16.88;;
45792;SDS011;31495;42.740;22.908;2022-10-22T05:14:34;32.08;;;17.10;;
45792;SDS011;31495;42.740;22.908;2022-10-22T05:15:33;26.05;;;16.33;;
45792;SDS011;31495;42.740;22.908;2022-10-22T05:16:32;38.75;;;17.10;;
45792;SDS011;31495;42.740;22.908;2022-10-22T05:17:35;30.70;;;18.40;;
45792;SDS011;31495;42.740;22.908;2022-10-22T05:18:36;30.23;;;16.95;;
45792;SDS011;31495;42.740;22.908;2022-10-22T05:19:37;34.00;;;18.52;;
45792;SDS011;31495;42.740;22.908;2022-10-22T05:20:40;29.73;;;18.45;;
45792;SDS011;31495;42.740;22.908;2022-10-22T05:21:40;44.22;;;21.90;;
45792;SDS011;31495;42.740;22.908;2022-10-22T05:22:40;46.67;;;23.42;;
45792;SDS011;31495;42.740;22.908;2022-10-22T05:23:39;45.50;;;24.13;;
45792;SDS011;31495;42.740;22.908;2022-10-22T05:24:39;45.47;;;27.48;;
45792;SDS011;31495;42.740;22.908;2022-10-22T05:25:38;60.08;;;37.45;;
45792;SDS011;31495;42.740;22.908;2022-10-22T05:26:38;95.95;;;55.58;;
45792;SDS011;31495;42.740;22.908;2022-10-22T05:27:37;100.93;;;60.53;;
45792;SDS011;31495;42.740;22.908;2022-10-22T05:28:37;105.18;;;67.20;;
45792;SDS011;31495;42.740;22.908;2022-10-22T05:29:37;98.65;;;62.38;;
45792;SDS011;31495;42.740;22.908;2022-10-22T05:30:36;92.05;;;60.08;;
45792;SDS011;31495;42.740;22.908;2022-10-22T05:31:36;88.07;;;54.17;;
45792;SDS011;31495;42.740;22.908;2022-10-22T05:32:37;76.47;;;50.22;;
45792;SDS011;31495;42.740;22.908;2022-10-22T05:33:36;90.25;;;54.45;;
45792;SDS011;31495;42.740;22.908;2022-10-22T05:34:36;82.28;;;50.53;;
45792;SDS011;31495;42.740;22.908;2022-10-22T05:35:36;80.38;;;48.28;;
45792;SDS011;31495;42.740;22.908;2022-10-22T05:36:36;81.45;;;48.20;;
45792;SDS011;31495;42.740;22.908;2022-10-22T05:37:35;100.53;;;55.90;;
45792;SDS011;31495;42.740;22.908;2022-10-22T05:38:35;97.28;;;55.65;;
45792;SDS011;31495;42.740;22.908;2022-10-22T05:39:34;100.78;;;53.42;;
45792;SDS011;31495;42.740;22.908;2022-10-22T05:40:34;79.90;;;43.47;;
45792;SDS011;31495;42.740;22.908;2022-10-22T05:41:34;83.20;;;41.17;;
45792;SDS011;31495;42.740;22.908;2022-10-22T05:42:34;68.90;;;36.80;;
45792;SDS011;31495;42.740;22.908;2022-10-22T05:43:34;63.80;;;32.25;;
45792;SDS011;31495;42.740;22.908;2022-10-22T05:44:33;52.42;;;26.23;;
45792;SDS011;31495;42.740;22.908;2022-10-22T05:45:37;53.30;;;27.77;;
45792;SDS011;31495;42.740;22.908;2022-10-22T05:46:37;46.47;;;27.00;;
45792;SDS011;31495;42.740;22.908;2022-10-22T05:47:37;49.05;;;27.42;;
45792;SDS011;31495;42.740;22.908;2022-10-22T05:48:37;46.85;;;27.33;;
45792;SDS011;31495;42.740;22.908;2022-10-22T05:49:37;45.78;;;26.48;;
45792;SDS011;31495;42.740;22.908;2022-10-22T05:50:37;43.00;;;25.15;;
45792;SDS011;31495;42.740;22.908;2022-10-22T05:51:37;41.28;;;25.63;;
45792;SDS011;31495;42.740;22.908;2022-10-22T05:52:36;53.88;;;29.52;;
45792;SDS011;31495;42.740;22.908;2022-10-22T05:53:37;48.47;;;27.98;;
45792;SDS011;31495;42.740;22.908;2022-10-22T05:54:38;58.17;;;32.08;;
45792;SDS011;31495;42.740;22.908;2022-10-22T05:55:38;51.45;;;31.25;;
45792;SDS011;31495;42.740;22.908;2022-10-22T05:56:38;56.95;;;32.90;;
45792;SDS011;31495;42.740;22.908;2022-10-22T05:57:38;54.85;;;30.88;;
45792;SDS011;31495;42.740;22.908;2022-10-22T05:58:39;55.50;;;31.75;;
45792;SDS011;31495;42.740;22.908;2022-10-22T05:59:38;53.17;;;30.83;;
45792;SDS011;31495;42.740;22.908;2022-10-22T06:00:38;54.20;;;31.60;;
45792;SDS011;31495;42.740;22.908;2022-10-22T06:01:38;47.00;;;28.40;;
45792;SDS011;31495;42.740;22.908;2022-10-22T06:02:38;51.03;;;32.00;;
45792;SDS011;31495;42.740;22.908;2022-10-22T06:03:38;52.45;;;31.70;;
45792;SDS011;31495;42.740;22.908;2022-10-22T06:04:38;62.50;;;36.78;;
45792;SDS011;31495;42.740;22.908;2022-10-22T06:05:37;53.08;;;32.58;;
45792;SDS011;31495;42.740;22.908;2022-10-22T06:06:50;45.97;;;29.40;;
45792;SDS011;31495;42.740;22.908;2022-10-22T06:07:51;42.78;;;24.58;;
45792;SDS011;31495;42.740;22.908;2022-10-22T06:08:52;41.97;;;23.83;;
45792;SDS011;31495;42.740;22.908;2022-10-22T06:09:53;42.25;;;22.67;;
45792;SDS011;31495;42.740;22.908;2022-10-22T06:10:52;39.70;;;21.52;;
45792;SDS011;31495;42.740;22.908;2022-10-22T06:11:52;41.80;;;23.98;;
45792;SDS011;31495;42.740;22.908;2022-10-22T06:12:51;41.50;;;22.85;;
45792;SDS011;31495;42.740;22.908;2022-10-22T06:13:51;36.20;;;22.33;;
45792;SDS011;31495;42.740;22.908;2022-10-22T06:14:50;47.85;;;26.25;;
45792;SDS011;31495;42.740;22.908;2022-10-22T06:15:50;48.75;;;26.35;;
45792;SDS011;31495;42.740;22.908;2022-10-22T06:17:51;40.65;;;22.85;;
45792;SDS011;31495;42.740;22.908;2022-10-22T06:18:50;43.50;;;24.15;;